sensor_id;sensor_type;location;lat;lon;timestamp;P1;durP1;ratioP1;P2;durP2;ratioP2
21743;SDS011;11034;48.556;9.342;2023-05-07T00:00:02;2.58;;;1.77;;
21743;SDS011;11034;48.556;9.342;2023-05-07T00:02:34;2.53;;;1.90;;
21743;SDS011;11034;48.556;9.342;2023-05-07T00:05:04;3.08;;;1.83;;
21743;SDS011;11034;48.556;9.342;2023-05-07T00:07:32;3.28;;;1.77;;
21743;SDS011;11034;48.556;9.342;2023-05-07T00:10:00;3.22;;;1.65;;
21743;SDS011;11034;48.556;9.342;2023-05-07T00:12:30;6.10;;;2.00;;
21743;SDS011;11034;48.556;9.342;2023-05-07T00:15:00;3.17;;;2.00;;
21743;SDS011;11034;48.556;9.342;2023-05-07T00:17:28;3.13;;;1.60;;
21743;SDS011;11034;48.556;9.342;2023-05-07T00:19:57;3.42;;;1.95;;
21743;SDS011;11034;48.556;9.342;2023-05-07T00:22:25;3.22;;;1.70;;
21743;SDS011;11034;48.556;9.342;2023-05-07T00:24:52;3.80;;;1.85;;
21743;SDS011;11034;48.556;9.342;2023-05-07T00:27:20;4.07;;;1.92;;
21743;SDS011;11034;48.556;9.342;2023-05-07T00:29:50;2.47;;;1.90;;
21743;SDS011;11034;48.556;9.342;2023-05-07T00:32:18;3.45;;;1.92;;
21743;SDS011;11034;48.556;9.342;2023-05-07T00:34:46;7.53;;;1.90;;
21743;SDS011;11034;48.556;9.342;2023-05-07T00:37:14;2.13;;;1.92;;
21743;SDS011;11034;48.556;9.342;2023-05-07T00:39:42;3.70;;;1.98;;
21743;SDS011;11034;48.556;9.342;2023-05-07T00:42:10;4.20;;;2.67;;
21743;SDS011;11034;48.556;9.342;2023-05-07T00:44:38;5.15;;;3.30;;
21743;SDS011;11034;48.556;9.342;2023-05-07T00:47:07;6.50;;;3.60;;
21743;SDS011;11034;48.556;9.342;2023-05-07T00:49:37;7.28;;;3.75;;
21743;SDS011;11034;48.556;9.342;2023-05-07T00:52:07;6.80;;;3.97;;
21743;SDS011;11034;48.556;9.342;2023-05-07T00:54:38;5.65;;;3.65;;
21743;SDS011;11034;48.556;9.342;2023-05-07T00:57:07;9.15;;;4.03;;
21743;SDS011;11034;48.556;9.342;2023-05-07T00:59:37;6.45;;;4.13;;
21743;SDS011;11034;48.556;9.342;2023-05-07T01:02:05;8.75;;;4.53;;
21743;SDS011;11034;48.556;9.342;2023-05-07T01:04:35;5.35;;;3.50;;
21743;SDS011;11034;48.556;9.342;2023-05-07T01:07:04;8.02;;;3.58;;
21743;SDS011;11034;48.556;9.342;2023-05-07T01:09:32;4.90;;;2.88;;
21743;SDS011;11034;48.556;9.342;2023-05-07T01:12:02;4.60;;;3.38;;
21743;SDS011;11034;48.556;9.342;2023-05-07T01:14:31;5.32;;;4.15;;
21743;SDS011;11034;48.556;9.342;2023-05-07T01:17:00;6.07;;;4.05;;
21743;SDS011;11034;48.556;9.342;2023-05-07T01:19:29;4.60;;;3.70;;
21743;SDS011;11034;48.556;9.342;2023-05-07T01:22:01;5.90;;;3.70;;
21743;SDS011;11034;48.556;9.342;2023-05-07T01:24:32;6.00;;;3.40;;
21743;SDS011;11034;48.556;9.342;2023-05-07T01:27:00;4.55;;;3.42;;
21743;SDS011;11034;48.556;9.342;2023-05-07T01:29:28;4.05;;;3.25;;
21743;SDS011;11034;48.556;9.342;2023-05-07T01:31:57;7.10;;;3.55;;
21743;SDS011;11034;48.556;9.342;2023-05-07T01:34:28;4.63;;;3.33;;
21743;SDS011;11034;48.556;9.342;2023-05-07T01:36:59;3.95;;;3.40;;
21743;SDS011;11034;48.556;9.342;2023-05-07T01:39:29;4.85;;;2.92;;
21743;SDS011;11034;48.556;9.342;2023-05-07T01:41:59;5.18;;;2.78;;
21743;SDS011;11034;48.556;9.342;2023-05-07T01:44:27;5.45;;;3.00;;
21743;SDS011;11034;48.556;9.342;2023-05-07T01:46:56;4.65;;;2.97;;
21743;SDS011;11034;48.556;9.342;2023-05-07T01:49:24;2.95;;;2.65;;
21743;SDS011;11034;48.556;9.342;2023-05-07T01:51:53;4.93;;;2.92;;
21743;SDS011;11034;48.556;9.342;2023-05-07T01:54:24;3.38;;;2.80;;
21743;SDS011;11034;48.556;9.342;2023-05-07T01:56:55;6.65;;;3.42;;
21743;SDS011;11034;48.556;9.342;2023-05-07T01:59:25;7.00;;;4.20;;
21743;SDS011;11034;48.556;9.342;2023-05-07T02:01:53;6.88;;;3.30;;
21743;SDS011;11034;48.556;9.342;2023-05-07T02:04:21;5.45;;;3.55;;
21743;SDS011;11034;48.556;9.342;2023-05-07T02:06:49;4.75;;;3.50;;
21743;SDS011;11034;48.556;9.342;2023-05-07T02:09:17;8.35;;;3.65;;
21743;SDS011;11034;48.556;9.342;2023-05-07T02:11:45;4.78;;;3.58;;
21743;SDS011;11034;48.556;9.342;2023-05-07T02:14:13;8.15;;;3.80;;
21743;SDS011;11034;48.556;9.342;2023-05-07T02:16:43;5.07;;;3.30;;
21743;SDS011;11034;48.556;9.342;2023-05-07T02:19:11;5.97;;;3.60;;
21743;SDS011;11034;48.556;9.342;2023-05-07T02:21:39;4.32;;;3.67;;
21743;SDS011;11034;48.556;9.342;2023-05-07T02:24:07;7.32;;;4.00;;
21743;SDS011;11034;48.556;9.342;2023-05-07T02:26:35;5.55;;;3.85;;
21743;SDS011;11034;48.556;9.342;2023-05-07T02:29:03;5.00;;;4.03;;
21743;SDS011;11034;48.556;9.342;2023-05-07T02:31:31;5.10;;;3.97;;
21743;SDS011;11034;48.556;9.342;2023-05-07T02:34:01;4.93;;;4.03;;
21743;SDS011;11034;48.556;9.342;2023-05-07T02:36:30;4.65;;;3.88;;
21743;SDS011;11034;48.556;9.342;2023-05-07T02:38:58;4.90;;;4.40;;
21743;SDS011;11034;48.556;9.342;2023-05-07T02:41:26;7.38;;;4.40;;
21743;SDS011;11034;48.556;9.342;2023-05-07T02:43:54;8.68;;;4.70;;
21743;SDS011;11034;48.556;9.342;2023-05-07T02:46:22;6.82;;;4.50;;
21743;SDS011;11034;48.556;9.342;2023-05-07T02:48:50;10.70;;;4.65;;
21743;SDS011;11034;48.556;9.342;2023-05-07T02:51:20;8.23;;;3.97;;
21743;SDS011;11034;48.556;9.342;2023-05-07T02:53:51;7.75;;;4.47;;
21743;SDS011;11034;48.556;9.342;2023-05-07T02:56:19;5.00;;;4.50;;
21743;SDS011;11034;48.556;9.342;2023-05-07T02:58:47;7.28;;;4.60;;
21743;SDS011;11034;48.556;9.342;2023-05-07T03:01:15;6.25;;;5.28;;
21743;SDS011;11034;48.556;9.342;2023-05-07T03:03:43;8.85;;;5.20;;
21743;SDS011;11034;48.556;9.342;2023-05-07T03:06:11;7.30;;;5.25;;
21743;SDS011;11034;48.556;9.342;2023-05-07T03:08:41;6.60;;;5.25;;
21743;SDS011;11034;48.556;9.342;2023-05-07T03:11:09;7.72;;;5.22;;
21743;SDS011;11034;48.556;9.342;2023-05-07T03:13:37;8.32;;;5.40;;
21743;SDS011;11034;48.556;9.342;2023-05-07T03:16:05;6.82;;;5.38;;
21743;SDS011;11034;48.556;9.342;2023-05-07T03:18:33;7.45;;;5.40;;
21743;SDS011;11034;48.556;9.342;2023-05-07T03:21:02;7.50;;;5.68;;
21743;SDS011;11034;48.556;9.342;2023-05-07T03:23:30;8.38;;;5.68;;
21743;SDS011;11034;48.556;9.342;2023-05-07T03:25:59;10.90;;;5.10;;
21743;SDS011;11034;48.556;9.342;2023-05-07T03:28:27;5.75;;;4.90;;
21743;SDS011;11034;48.556;9.342;2023-05-07T03:30:55;8.18;;;5.47;;
21743;SDS011;11034;48.556;9.342;2023-05-07T03:33:23;6.25;;;5.00;;
21743;SDS011;11034;48.556;9.342;2023-05-07T03:35:51;6.88;;;5.30;;
21743;SDS011;11034;48.556;9.342;2023-05-07T03:38:19;7.63;;;5.32;;
21743;SDS011;11034;48.556;9.342;2023-05-07T03:40:47;7.82;;;5.38;;
21743;SDS011;11034;48.556;9.342;2023-05-07T03:43:16;6.43;;;5.35;;
21743;SDS011;11034;48.556;9.342;2023-05-07T03:45:44;6.80;;;5.43;;
21743;SDS011;11034;48.556;9.342;2023-05-07T03:48:12;6.47;;;5.72;;
21743;SDS011;11034;48.556;9.342;2023-05-07T03:50:40;8.07;;;5.22;;
21743;SDS011;11034;48.556;9.342;2023-05-07T03:53:08;8.02;;;5.32;;
21743;SDS011;11034;48.556;9.342;2023-05-07T03:55:36;7.07;;;5.40;;
21743;SDS011;11034;48.556;9.342;2023-05-07T03:58:05;7.57;;;5.32;;
21743;SDS011;11034;48.556;9.342;2023-05-07T04:00:34;7.60;;;6.05;;
21743;SDS011;11034;48.556;9.342;2023-05-07T04:03:04;7.20;;;5.10;;
21743;SDS011;11034;48.556;9.342;2023-05-07T04:05:32;10.20;;;5.72;;
21743;SDS011;11034;48.556;9.342;2023-05-07T04:08:00;9.13;;;6.28;;
21743;SDS011;11034;48.556;9.342;2023-05-07T04:10:29;6.80;;;6.00;;
21743;SDS011;11034;48.556;9.342;2023-05-07T04:12:57;9.07;;;6.13;;
21743;SDS011;11034;48.556;9.342;2023-05-07T04:15:25;6.75;;;5.90;;
21743;SDS011;11034;48.556;9.342;2023-05-07T04:17:55;9.73;;;6.43;;
21743;SDS011;11034;48.556;9.342;2023-05-07T04:20:23;7.50;;;6.00;;
21743;SDS011;11034;48.556;9.342;2023-05-07T04:22:51;9.23;;;6.18;;
21743;SDS011;11034;48.556;9.342;2023-05-07T04:25:19;8.02;;;5.32;;
21743;SDS011;11034;48.556;9.342;2023-05-07T04:27:47;7.13;;;4.90;;
21743;SDS011;11034;48.556;9.342;2023-05-07T04:30:16;6.60;;;5.57;;
21743;SDS011;11034;48.556;9.342;2023-05-07T04:32:44;7.70;;;5.72;;
21743;SDS011;11034;48.556;9.342;2023-05-07T04:35:14;6.20;;;4.80;;
21743;SDS011;11034;48.556;9.342;2023-05-07T04:37:42;7.97;;;5.30;;
21743;SDS011;11034;48.556;9.342;2023-05-07T04:40:10;7.57;;;5.72;;
21743;SDS011;11034;48.556;9.342;2023-05-07T04:42:38;7.43;;;5.43;;
21743;SDS011;11034;48.556;9.342;2023-05-07T04:45:06;6.05;;;4.90;;
21743;SDS011;11034;48.556;9.342;2023-05-07T04:47:36;7.03;;;4.70;;
21743;SDS011;11034;48.556;9.342;2023-05-07T04:50:04;8.50;;;4.35;;
21743;SDS011;11034;48.556;9.342;2023-05-07T04:52:35;5.03;;;3.75;;
21743;SDS011;11034;48.556;9.342;2023-05-07T04:55:04;7.75;;;4.10;;
21743;SDS011;11034;48.556;9.342;2023-05-07T04:57:32;5.55;;;3.90;;
21743;SDS011;11034;48.556;9.342;2023-05-07T05:00:00;3.90;;;3.10;;
21743;SDS011;11034;48.556;9.342;2023-05-07T05:02:30;4.68;;;3.00;;
21743;SDS011;11034;48.556;9.342;2023-05-07T05:04:58;5.03;;;2.90;;
21743;SDS011;11034;48.556;9.342;2023-05-07T05:07:27;5.10;;;2.95;;
21743;SDS011;11034;48.556;9.342;2023-05-07T05:09:57;5.32;;;2.90;;
21743;SDS011;11034;48.556;9.342;2023-05-07T05:12:25;6.53;;;3.00;;
21743;SDS011;11034;48.556;9.342;2023-05-07T05:14:53;3.70;;;2.70;;
21743;SDS011;11034;48.556;9.342;2023-05-07T05:17:21;4.95;;;2.60;;
21743;SDS011;11034;48.556;9.342;2023-05-07T05:19:49;4.25;;;2.72;;
21743;SDS011;11034;48.556;9.342;2023-05-07T05:22:17;3.75;;;3.08;;
21743;SDS011;11034;48.556;9.342;2023-05-07T05:24:47;3.92;;;2.55;;
21743;SDS011;11034;48.556;9.342;2023-05-07T05:27:16;7.13;;;2.55;;
21743;SDS011;11034;48.556;9.342;2023-05-07T05:29:44;5.57;;;2.90;;
21743;SDS011;11034;48.556;9.342;2023-05-07T05:32:12;4.70;;;2.65;;
21743;SDS011;11034;48.556;9.342;2023-05-07T05:34:40;4.00;;;2.40;;
21743;SDS011;11034;48.556;9.342;2023-05-07T05:37:08;6.55;;;3.17;;
21743;SDS011;11034;48.556;9.342;2023-05-07T05:39:36;3.55;;;2.95;;
21743;SDS011;11034;48.556;9.342;2023-05-07T05:42:04;6.72;;;2.85;;
21743;SDS011;11034;48.556;9.342;2023-05-07T05:44:34;4.68;;;2.88;;
21743;SDS011;11034;48.556;9.342;2023-05-07T05:47:02;5.90;;;2.72;;
21743;SDS011;11034;48.556;9.342;2023-05-07T05:49:30;4.72;;;2.72;;
21743;SDS011;11034;48.556;9.342;2023-05-07T05:51:58;3.92;;;2.25;;
21743;SDS011;11034;48.556;9.342;2023-05-07T05:54:26;2.95;;;2.63;;
21743;SDS011;11034;48.556;9.342;2023-05-07T05:56:54;4.15;;;2.38;;
21743;SDS011;11034;48.556;9.342;2023-05-07T05:59:22;6.00;;;2.67;;
21743;SDS011;11034;48.556;9.342;2023-05-07T06:01:52;6.20;;;2.85;;
21743;SDS011;11034;48.556;9.342;2023-05-07T06:04:20;3.95;;;2.75;;
21743;SDS011;11034;48.556;9.342;2023-05-07T06:06:48;4.18;;;2.75;;
21743;SDS011;11034;48.556;9.342;2023-05-07T06:09:16;3.47;;;2.65;;
21743;SDS011;11034;48.556;9.342;2023-05-07T06:11:44;6.25;;;2.70;;
21743;SDS011;11034;48.556;9.342;2023-05-07T06:14:12;5.47;;;2.97;;
21743;SDS011;11034;48.556;9.342;2023-05-07T06:16:40;6.50;;;2.92;;
21743;SDS011;11034;48.556;9.342;2023-05-07T06:19:09;3.92;;;3.10;;
21743;SDS011;11034;48.556;9.342;2023-05-07T06:21:38;4.40;;;3.25;;
21743;SDS011;11034;48.556;9.342;2023-05-07T06:24:06;4.13;;;2.75;;
21743;SDS011;11034;48.556;9.342;2023-05-07T06:26:35;3.60;;;2.95;;
21743;SDS011;11034;48.556;9.342;2023-05-07T06:29:02;5.05;;;3.15;;
21743;SDS011;11034;48.556;9.342;2023-05-07T06:31:30;5.85;;;3.13;;
21743;SDS011;11034;48.556;9.342;2023-05-07T06:33:59;5.03;;;2.88;;
21743;SDS011;11034;48.556;9.342;2023-05-07T06:36:29;3.30;;;2.45;;
21743;SDS011;11034;48.556;9.342;2023-05-07T06:38:57;4.68;;;3.05;;
21743;SDS011;11034;48.556;9.342;2023-05-07T06:41:25;3.50;;;2.55;;
21743;SDS011;11034;48.556;9.342;2023-05-07T06:43:53;4.13;;;2.88;;
21743;SDS011;11034;48.556;9.342;2023-05-07T06:46:21;5.85;;;3.05;;
21743;SDS011;11034;48.556;9.342;2023-05-07T06:48:49;3.58;;;2.70;;
21743;SDS011;11034;48.556;9.342;2023-05-07T06:51:18;4.22;;;2.70;;
21743;SDS011;11034;48.556;9.342;2023-05-07T06:53:47;5.57;;;2.90;;
21743;SDS011;11034;48.556;9.342;2023-05-07T06:56:15;3.63;;;2.75;;
21743;SDS011;11034;48.556;9.342;2023-05-07T06:58:43;5.45;;;2.70;;
21743;SDS011;11034;48.556;9.342;2023-05-07T07:01:11;3.22;;;2.70;;
21743;SDS011;11034;48.556;9.342;2023-05-07T07:03:39;4.90;;;2.88;;
21743;SDS011;11034;48.556;9.342;2023-05-07T07:06:07;3.83;;;2.75;;
21743;SDS011;11034;48.556;9.342;2023-05-07T07:08:35;3.05;;;2.60;;
21743;SDS011;11034;48.556;9.342;2023-05-07T07:11:06;4.53;;;2.80;;
21743;SDS011;11034;48.556;9.342;2023-05-07T07:13:35;5.60;;;3.00;;
21743;SDS011;11034;48.556;9.342;2023-05-07T07:16:04;6.47;;;3.10;;
21743;SDS011;11034;48.556;9.342;2023-05-07T07:18:32;3.50;;;2.95;;
21743;SDS011;11034;48.556;9.342;2023-05-07T07:21:00;5.82;;;2.83;;
21743;SDS011;11034;48.556;9.342;2023-05-07T07:23:28;3.78;;;2.72;;
21743;SDS011;11034;48.556;9.342;2023-05-07T07:25:56;5.07;;;3.13;;
21743;SDS011;11034;48.556;9.342;2023-05-07T07:28:25;4.88;;;3.15;;
21743;SDS011;11034;48.556;9.342;2023-05-07T07:30:53;3.60;;;2.90;;
21743;SDS011;11034;48.556;9.342;2023-05-07T07:33:21;3.30;;;3.00;;
21743;SDS011;11034;48.556;9.342;2023-05-07T07:35:49;5.40;;;2.95;;
21743;SDS011;11034;48.556;9.342;2023-05-07T07:38:17;4.50;;;2.92;;
21743;SDS011;11034;48.556;9.342;2023-05-07T07:40:47;6.43;;;3.22;;
21743;SDS011;11034;48.556;9.342;2023-05-07T07:43:15;6.47;;;3.00;;
21743;SDS011;11034;48.556;9.342;2023-05-07T07:45:44;4.43;;;2.83;;
21743;SDS011;11034;48.556;9.342;2023-05-07T07:48:12;4.28;;;2.75;;
21743;SDS011;11034;48.556;9.342;2023-05-07T07:50:40;4.75;;;2.70;;
21743;SDS011;11034;48.556;9.342;2023-05-07T07:53:11;4.47;;;2.60;;
21743;SDS011;11034;48.556;9.342;2023-05-07T07:55:39;3.85;;;2.70;;
21743;SDS011;11034;48.556;9.342;2023-05-07T07:58:07;6.75;;;2.88;;
21743;SDS011;11034;48.556;9.342;2023-05-07T08:00:35;5.60;;;2.70;;
21743;SDS011;11034;48.556;9.342;2023-05-07T08:03:05;5.75;;;2.80;;
21743;SDS011;11034;48.556;9.342;2023-05-07T08:05:33;5.88;;;3.08;;
21743;SDS011;11034;48.556;9.342;2023-05-07T08:08:02;3.78;;;2.90;;
21743;SDS011;11034;48.556;9.342;2023-05-07T08:10:31;5.35;;;2.78;;
21743;SDS011;11034;48.556;9.342;2023-05-07T08:13:01;3.17;;;2.67;;
21743;SDS011;11034;48.556;9.342;2023-05-07T08:15:30;5.10;;;2.95;;
21743;SDS011;11034;48.556;9.342;2023-05-07T08:17:58;4.53;;;2.80;;
21743;SDS011;11034;48.556;9.342;2023-05-07T08:20:28;4.97;;;3.13;;
21743;SDS011;11034;48.556;9.342;2023-05-07T08:22:57;3.83;;;2.90;;
21743;SDS011;11034;48.556;9.342;2023-05-07T08:25:25;5.40;;;3.38;;
21743;SDS011;11034;48.556;9.342;2023-05-07T08:27:53;7.35;;;2.95;;
21743;SDS011;11034;48.556;9.342;2023-05-07T08:30:20;4.30;;;3.25;;
21743;SDS011;11034;48.556;9.342;2023-05-07T08:32:49;5.55;;;2.83;;
21743;SDS011;11034;48.556;9.342;2023-05-07T08:35:17;5.95;;;3.38;;
21743;SDS011;11034;48.556;9.342;2023-05-07T08:37:46;4.60;;;3.53;;
21743;SDS011;11034;48.556;9.342;2023-05-07T08:40:14;5.40;;;3.22;;
21743;SDS011;11034;48.556;9.342;2023-05-07T08:42:42;3.75;;;3.35;;
21743;SDS011;11034;48.556;9.342;2023-05-07T08:45:12;4.70;;;3.72;;
21743;SDS011;11034;48.556;9.342;2023-05-07T08:47:42;4.93;;;3.58;;
21743;SDS011;11034;48.556;9.342;2023-05-07T08:50:12;6.00;;;3.30;;
21743;SDS011;11034;48.556;9.342;2023-05-07T08:52:40;4.50;;;3.72;;
21743;SDS011;11034;48.556;9.342;2023-05-07T08:55:10;5.85;;;3.63;;
21743;SDS011;11034;48.556;9.342;2023-05-07T08:57:40;4.40;;;3.00;;
21743;SDS011;11034;48.556;9.342;2023-05-07T09:00:08;5.20;;;2.90;;
21743;SDS011;11034;48.556;9.342;2023-05-07T09:02:37;4.70;;;3.00;;
21743;SDS011;11034;48.556;9.342;2023-05-07T09:05:06;7.13;;;3.30;;
21743;SDS011;11034;48.556;9.342;2023-05-07T09:07:35;4.45;;;2.92;;
21743;SDS011;11034;48.556;9.342;2023-05-07T09:10:03;6.00;;;3.08;;
21743;SDS011;11034;48.556;9.342;2023-05-07T09:12:34;4.55;;;2.80;;
21743;SDS011;11034;48.556;9.342;2023-05-07T09:15:02;3.33;;;2.83;;
21743;SDS011;11034;48.556;9.342;2023-05-07T09:17:32;3.28;;;2.78;;
21743;SDS011;11034;48.556;9.342;2023-05-07T09:20:02;6.30;;;2.58;;
21743;SDS011;11034;48.556;9.342;2023-05-07T09:22:32;5.22;;;2.85;;
21743;SDS011;11034;48.556;9.342;2023-05-07T09:25:00;6.32;;;2.58;;
21743;SDS011;11034;48.556;9.342;2023-05-07T09:27:28;6.60;;;2.75;;
21743;SDS011;11034;48.556;9.342;2023-05-07T09:29:59;3.05;;;2.40;;
21743;SDS011;11034;48.556;9.342;2023-05-07T09:32:34;2.75;;;2.50;;
21743;SDS011;11034;48.556;9.342;2023-05-07T09:35:04;4.28;;;2.28;;
21743;SDS011;11034;48.556;9.342;2023-05-07T09:37:33;3.53;;;2.28;;
21743;SDS011;11034;48.556;9.342;2023-05-07T09:40:03;3.47;;;2.00;;
21743;SDS011;11034;48.556;9.342;2023-05-07T09:42:33;2.63;;;2.15;;
21743;SDS011;11034;48.556;9.342;2023-05-07T09:45:02;4.03;;;2.03;;
21743;SDS011;11034;48.556;9.342;2023-05-07T09:47:33;3.15;;;2.05;;
21743;SDS011;11034;48.556;9.342;2023-05-07T09:50:06;3.60;;;2.10;;
21743;SDS011;11034;48.556;9.342;2023-05-07T09:52:37;5.22;;;2.30;;
21743;SDS011;11034;48.556;9.342;2023-05-07T09:55:07;3.80;;;2.30;;
21743;SDS011;11034;48.556;9.342;2023-05-07T09:57:36;3.30;;;2.38;;
21743;SDS011;11034;48.556;9.342;2023-05-07T10:00:09;3.17;;;1.83;;
21743;SDS011;11034;48.556;9.342;2023-05-07T10:02:39;2.97;;;2.25;;
21743;SDS011;11034;48.556;9.342;2023-05-07T10:05:12;4.32;;;2.38;;
21743;SDS011;11034;48.556;9.342;2023-05-07T10:07:42;4.22;;;2.00;;
21743;SDS011;11034;48.556;9.342;2023-05-07T10:10:10;3.53;;;2.00;;
21743;SDS011;11034;48.556;9.342;2023-05-07T10:12:39;4.25;;;2.05;;
21743;SDS011;11034;48.556;9.342;2023-05-07T10:15:10;2.33;;;1.95;;
21743;SDS011;11034;48.556;9.342;2023-05-07T10:17:39;3.72;;;2.13;;
21743;SDS011;11034;48.556;9.342;2023-05-07T10:20:08;5.43;;;2.00;;
21743;SDS011;11034;48.556;9.342;2023-05-07T10:22:37;4.75;;;2.20;;
21743;SDS011;11034;48.556;9.342;2023-05-07T10:25:09;3.95;;;2.08;;
21743;SDS011;11034;48.556;9.342;2023-05-07T10:27:44;3.10;;;2.00;;
21743;SDS011;11034;48.556;9.342;2023-05-07T10:30:17;3.35;;;1.92;;
21743;SDS011;11034;48.556;9.342;2023-05-07T10:32:59;4.10;;;1.90;;
21743;SDS011;11034;48.556;9.342;2023-05-07T10:35:37;3.25;;;2.13;;
21743;SDS011;11034;48.556;9.342;2023-05-07T10:38:07;4.55;;;1.98;;
21743;SDS011;11034;48.556;9.342;2023-05-07T10:40:36;3.45;;;1.90;;
21743;SDS011;11034;48.556;9.342;2023-05-07T10:43:04;3.47;;;1.92;;
21743;SDS011;11034;48.556;9.342;2023-05-07T10:45:37;3.15;;;1.98;;
21743;SDS011;11034;48.556;9.342;2023-05-07T10:48:06;2.70;;;1.95;;
21743;SDS011;11034;48.556;9.342;2023-05-07T10:51:17;2.63;;;1.80;;
21743;SDS011;11034;48.556;9.342;2023-05-07T10:53:46;4.00;;;2.13;;
21743;SDS011;11034;48.556;9.342;2023-05-07T11:02:10;4.10;;;2.25;;
21743;SDS011;11034;48.556;9.342;2023-05-07T11:04:40;2.97;;;2.10;;
21743;SDS011;11034;48.556;9.342;2023-05-07T11:07:20;4.68;;;2.00;;
21743;SDS011;11034;48.556;9.342;2023-05-07T11:10:03;3.20;;;2.00;;
21743;SDS011;11034;48.556;9.342;2023-05-07T11:15:41;4.68;;;2.08;;
21743;SDS011;11034;48.556;9.342;2023-05-07T11:18:12;5.88;;;2.15;;
21743;SDS011;11034;48.556;9.342;2023-05-07T11:20:54;2.72;;;2.10;;
21743;SDS011;11034;48.556;9.342;2023-05-07T11:26:27;4.35;;;2.85;;
21743;SDS011;11034;48.556;9.342;2023-05-07T11:28:57;2.60;;;2.13;;
21743;SDS011;11034;48.556;9.342;2023-05-07T11:31:27;3.13;;;2.30;;
21743;SDS011;11034;48.556;9.342;2023-05-07T11:33:57;4.35;;;2.33;;
21743;SDS011;11034;48.556;9.342;2023-05-07T11:36:25;6.95;;;2.33;;
21743;SDS011;11034;48.556;9.342;2023-05-07T11:38:58;4.53;;;2.30;;
21743;SDS011;11034;48.556;9.342;2023-05-07T11:41:33;2.40;;;2.17;;
21743;SDS011;11034;48.556;9.342;2023-05-07T11:44:03;2.45;;;1.90;;
21743;SDS011;11034;48.556;9.342;2023-05-07T11:46:31;4.75;;;2.00;;
21743;SDS011;11034;48.556;9.342;2023-05-07T11:49:02;3.53;;;2.20;;
21743;SDS011;11034;48.556;9.342;2023-05-07T11:51:30;4.55;;;2.38;;
21743;SDS011;11034;48.556;9.342;2023-05-07T11:53:58;5.82;;;1.95;;
21743;SDS011;11034;48.556;9.342;2023-05-07T11:56:26;4.75;;;1.70;;
21743;SDS011;11034;48.556;9.342;2023-05-07T11:58:54;10.95;;;2.85;;
21743;SDS011;11034;48.556;9.342;2023-05-07T12:01:22;6.68;;;2.13;;
21743;SDS011;11034;48.556;9.342;2023-05-07T12:03:50;9.93;;;2.33;;
21743;SDS011;11034;48.556;9.342;2023-05-07T12:06:20;6.00;;;2.35;;
21743;SDS011;11034;48.556;9.342;2023-05-07T12:08:48;6.70;;;2.80;;
21743;SDS011;11034;48.556;9.342;2023-05-07T12:11:16;6.18;;;3.20;;
21743;SDS011;11034;48.556;9.342;2023-05-07T12:13:50;7.13;;;2.97;;
21743;SDS011;11034;48.556;9.342;2023-05-07T12:16:18;7.43;;;2.95;;
21743;SDS011;11034;48.556;9.342;2023-05-07T12:18:47;7.90;;;2.90;;
21743;SDS011;11034;48.556;9.342;2023-05-07T12:21:15;4.70;;;3.10;;
21743;SDS011;11034;48.556;9.342;2023-05-07T12:23:45;5.68;;;3.35;;
21743;SDS011;11034;48.556;9.342;2023-05-07T12:26:14;6.45;;;3.17;;
21743;SDS011;11034;48.556;9.342;2023-05-07T12:28:42;6.38;;;3.78;;
21743;SDS011;11034;48.556;9.342;2023-05-07T12:31:10;11.25;;;4.10;;
21743;SDS011;11034;48.556;9.342;2023-05-07T12:33:38;11.10;;;4.80;;
21743;SDS011;11034;48.556;9.342;2023-05-07T12:36:07;7.20;;;4.70;;
21743;SDS011;11034;48.556;9.342;2023-05-07T12:38:36;5.75;;;3.92;;
21743;SDS011;11034;48.556;9.342;2023-05-07T12:41:07;5.65;;;4.00;;
21743;SDS011;11034;48.556;9.342;2023-05-07T12:43:36;8.77;;;4.03;;
21743;SDS011;11034;48.556;9.342;2023-05-07T12:46:05;4.65;;;4.13;;
21743;SDS011;11034;48.556;9.342;2023-05-07T12:48:36;6.72;;;4.15;;
21743;SDS011;11034;48.556;9.342;2023-05-07T12:51:06;4.97;;;4.07;;
21743;SDS011;11034;48.556;9.342;2023-05-07T12:53:39;5.28;;;3.80;;
21743;SDS011;11034;48.556;9.342;2023-05-07T12:56:09;5.00;;;3.90;;
21743;SDS011;11034;48.556;9.342;2023-05-07T12:58:37;6.47;;;4.00;;
21743;SDS011;11034;48.556;9.342;2023-05-07T13:01:07;4.25;;;3.85;;
21743;SDS011;11034;48.556;9.342;2023-05-07T13:03:37;4.82;;;3.90;;
21743;SDS011;11034;48.556;9.342;2023-05-07T13:06:06;5.95;;;3.67;;
21743;SDS011;11034;48.556;9.342;2023-05-07T13:08:38;7.88;;;4.10;;
21743;SDS011;11034;48.556;9.342;2023-05-07T13:11:10;3.97;;;3.55;;
21743;SDS011;11034;48.556;9.342;2023-05-07T13:13:40;6.30;;;3.58;;
21743;SDS011;11034;48.556;9.342;2023-05-07T13:16:09;4.15;;;3.25;;
21743;SDS011;11034;48.556;9.342;2023-05-07T13:18:39;5.47;;;2.60;;
21743;SDS011;11034;48.556;9.342;2023-05-07T13:21:10;2.20;;;2.00;;
21743;SDS011;11034;48.556;9.342;2023-05-07T13:23:39;6.03;;;2.30;;
21743;SDS011;11034;48.556;9.342;2023-05-07T13:26:07;4.93;;;2.78;;
21743;SDS011;11034;48.556;9.342;2023-05-07T13:28:54;5.95;;;3.72;;
21743;SDS011;11034;48.556;9.342;2023-05-07T13:31:22;6.68;;;4.10;;
21743;SDS011;11034;48.556;9.342;2023-05-07T13:33:50;8.60;;;3.90;;
21743;SDS011;11034;48.556;9.342;2023-05-07T13:36:19;6.03;;;4.18;;
21743;SDS011;11034;48.556;9.342;2023-05-07T13:38:47;4.70;;;3.00;;
21743;SDS011;11034;48.556;9.342;2023-05-07T13:41:15;8.00;;;2.63;;
21743;SDS011;11034;48.556;9.342;2023-05-07T13:43:43;6.20;;;3.08;;
21743;SDS011;11034;48.556;9.342;2023-05-07T13:46:12;6.45;;;3.47;;
21743;SDS011;11034;48.556;9.342;2023-05-07T13:48:40;8.07;;;3.47;;
21743;SDS011;11034;48.556;9.342;2023-05-07T13:51:08;9.23;;;3.78;;
21743;SDS011;11034;48.556;9.342;2023-05-07T13:53:36;4.50;;;3.03;;
21743;SDS011;11034;48.556;9.342;2023-05-07T13:56:04;6.95;;;3.60;;
21743;SDS011;11034;48.556;9.342;2023-05-07T13:58:33;5.53;;;3.40;;
21743;SDS011;11034;48.556;9.342;2023-05-07T14:01:10;9.02;;;4.60;;
21743;SDS011;11034;48.556;9.342;2023-05-07T14:03:39;7.00;;;4.20;;
21743;SDS011;11034;48.556;9.342;2023-05-07T14:06:08;8.05;;;3.83;;
21743;SDS011;11034;48.556;9.342;2023-05-07T14:08:35;6.88;;;4.00;;
21743;SDS011;11034;48.556;9.342;2023-05-07T14:11:04;7.13;;;4.75;;
21743;SDS011;11034;48.556;9.342;2023-05-07T14:13:32;7.20;;;5.07;;
21743;SDS011;11034;48.556;9.342;2023-05-07T14:16:00;7.28;;;4.95;;
21743;SDS011;11034;48.556;9.342;2023-05-07T14:18:30;10.77;;;5.97;;
21743;SDS011;11034;48.556;9.342;2023-05-07T14:21:01;9.65;;;6.70;;
21743;SDS011;11034;48.556;9.342;2023-05-07T14:23:29;10.82;;;6.18;;
21743;SDS011;11034;48.556;9.342;2023-05-07T14:25:57;10.15;;;7.07;;
21743;SDS011;11034;48.556;9.342;2023-05-07T14:28:25;11.02;;;7.70;;
21743;SDS011;11034;48.556;9.342;2023-05-07T14:30:53;11.90;;;7.85;;
21743;SDS011;11034;48.556;9.342;2023-05-07T14:33:21;12.20;;;8.70;;
21743;SDS011;11034;48.556;9.342;2023-05-07T14:35:49;10.95;;;7.88;;
21743;SDS011;11034;48.556;9.342;2023-05-07T14:38:18;12.50;;;8.60;;
21743;SDS011;11034;48.556;9.342;2023-05-07T14:40:46;10.18;;;8.02;;
21743;SDS011;11034;48.556;9.342;2023-05-07T14:43:14;12.57;;;7.82;;
21743;SDS011;11034;48.556;9.342;2023-05-07T14:45:43;9.00;;;6.93;;
21743;SDS011;11034;48.556;9.342;2023-05-07T14:48:11;6.78;;;5.45;;
21743;SDS011;11034;48.556;9.342;2023-05-07T14:50:41;7.40;;;5.57;;
21743;SDS011;11034;48.556;9.342;2023-05-07T14:53:09;6.78;;;4.53;;
21743;SDS011;11034;48.556;9.342;2023-05-07T14:55:38;6.97;;;5.32;;
21743;SDS011;11034;48.556;9.342;2023-05-07T14:58:07;8.07;;;6.03;;
21743;SDS011;11034;48.556;9.342;2023-05-07T15:00:35;9.50;;;6.43;;
21743;SDS011;11034;48.556;9.342;2023-05-07T15:03:05;8.60;;;6.65;;
21743;SDS011;11034;48.556;9.342;2023-05-07T15:05:34;8.30;;;5.88;;
21743;SDS011;11034;48.556;9.342;2023-05-07T15:08:03;6.32;;;5.72;;
21743;SDS011;11034;48.556;9.342;2023-05-07T15:10:33;9.43;;;6.25;;